createdAt,value
2018-05-21T00:00:30.511Z,81.42
2018-05-21T00:02:58.047Z,81.87
2018-05-21T00:05:25.550Z,82.02
2018-05-21T00:07:53.026Z,82.05
2018-05-21T00:10:20.527Z,82.52
2018-05-21T00:12:48.003Z,82.62
2018-05-21T00:15:15.502Z,82.49
2018-05-21T00:17:42.974Z,82.61
2018-05-21T00:20:10.478Z,82.67
2018-05-21T00:22:37.950Z,82.74
2018-05-21T00:25:05.446Z,82.43
2018-05-21T00:27:32.925Z,82.31
2018-05-21T00:30:00.414Z,82.45
2018-05-21T00:32:27.886Z,82.59
2018-05-21T00:34:55.378Z,82.53
2018-05-21T00:37:22.866Z,82.53
2018-05-21T00:39:50.358Z,82.64
2018-05-21T00:42:18.409Z,82.75
2018-05-21T00:44:45.889Z,83.13
2018-05-21T00:47:13.370Z,83.68
2018-05-21T00:49:40.905Z,83.99
2018-05-21T00:52:08.373Z,84.19
2018-05-21T00:54:35.866Z,83.92
2018-05-21T00:57:03.353Z,84.10
2018-05-21T00:59:30.861Z,84.52
2018-05-21T01:01:58.354Z,84.59
2018-05-21T01:04:25.838Z,84.52
2018-05-21T01:06:53.335Z,84.90
2018-05-21T01:09:20.835Z,85.25
2018-05-21T01:11:48.337Z,85.46
2018-05-21T01:14:15.834Z,85.83
2018-05-21T01:16:43.321Z,85.76
2018-05-21T01:19:10.797Z,85.67
2018-05-21T01:21:38.299Z,85.40
2018-05-21T01:24:05.782Z,85.50
2018-05-21T01:26:33.274Z,85.57
2018-05-21T01:29:00.763Z,85.74
2018-05-21T01:31:28.267Z,85.80
2018-05-21T01:33:55.757Z,86.48
2018-05-21T01:36:23.251Z,86.54
2018-05-21T01:38:50.731Z,86.68
2018-05-21T01:41:18.220Z,87.34
2018-05-21T01:43:45.726Z,87.52
2018-05-21T01:46:13.218Z,87.30
2018-05-21T01:48:40.694Z,86.83
2018-05-21T01:51:08.198Z,86.71
2018-05-21T01:53:35.691Z,86.52
2018-05-21T01:56:03.182Z,86.63
2018-05-21T01:58:30.681Z,86.49
2018-05-21T02:00:58.174Z,86.51
2018-05-21T02:03:25.647Z,87.11
2018-05-21T02:05:53.153Z,87.81
2018-05-21T02:08:20.896Z,88.40
2018-05-21T02:10:48.371Z,88.51
2018-05-21T02:13:15.850Z,88.15
2018-05-21T02:15:43.407Z,88.07
2018-05-21T02:18:10.882Z,88.21
2018-05-21T02:20:38.373Z,87.96
2018-05-21T02:23:05.861Z,87.90
2018-05-21T02:25:34.362Z,88.15
2018-05-21T02:28:01.864Z,87.82
2018-05-21T02:30:29.342Z,88.09
2018-05-21T02:32:56.833Z,88.32
2018-05-21T02:35:24.324Z,88.30
2018-05-21T02:37:51.823Z,88.23
2018-05-21T02:40:19.305Z,88.05
2018-05-21T02:42:47.612Z,88.14
2018-05-21T02:45:15.093Z,88.72
2018-05-21T02:47:42.591Z,89.01
2018-05-21T02:50:10.081Z,88.59
2018-05-21T02:52:37.586Z,88.42
2018-05-21T02:55:05.071Z,89.08
2018-05-21T02:57:32.570Z,89.48
2018-05-21T03:00:00.045Z,89.56
2018-05-21T03:02:27.560Z,89.42
2018-05-21T03:04:55.038Z,89.16
2018-05-21T03:07:22.546Z,88.75
2018-05-21T03:09:50.052Z,88.63
2018-05-21T03:12:17.551Z,88.99
2018-05-21T03:14:45.030Z,88.92
2018-05-21T03:17:12.534Z,88.91
2018-05-21T03:19:40.015Z,88.83
2018-05-21T03:22:07.515Z,89.45
2018-05-21T03:24:34.996Z,89.10
2018-05-21T03:27:02.490Z,88.91
2018-05-21T03:29:29.957Z,89.44
2018-05-21T03:31:57.484Z,89.16
2018-05-21T03:34:24.966Z,89.25
2018-05-21T03:36:52.462Z,88.89
2018-05-21T03:39:19.978Z,88.54
2018-05-21T03:41:47.492Z,88.49
2018-05-21T03:44:14.968Z,88.61
2018-05-21T03:46:42.472Z,88.33
2018-05-21T03:49:09.950Z,88.02
2018-05-21T03:51:37.449Z,87.96
2018-05-21T03:54:04.938Z,87.88
2018-05-21T03:56:32.414Z,87.71
2018-05-21T03:59:11.738Z,87.44
2018-05-21T04:01:50.934Z,87.17
2018-05-21T04:04:18.410Z,86.96
2018-05-21T04:06:45.889Z,87.34
2018-05-21T04:09:13.387Z,87.09
2018-05-21T04:11:40.858Z,86.95
2018-05-21T04:14:08.345Z,87.07
2018-05-21T04:16:35.810Z,86.80
2018-05-21T04:19:03.330Z,87.23
2018-05-21T04:21:31.031Z,87.30
2018-05-21T04:23:58.527Z,87.54
2018-05-21T04:26:26.003Z,87.33
2018-05-21T04:28:53.493Z,86.75
2018-05-21T04:31:20.958Z,86.60
2018-05-21T04:33:48.461Z,86.37
2018-05-21T04:36:15.939Z,86.55
2018-05-21T04:38:43.433Z,86.57
2018-05-21T04:41:10.912Z,86.39
2018-05-21T04:43:38.406Z,86.20
2018-05-21T04:46:05.910Z,85.82
2018-05-21T04:48:33.407Z,85.97
2018-05-21T04:51:00.886Z,85.33
2018-05-21T04:53:28.387Z,84.69
2018-05-21T04:55:55.866Z,83.64
2018-05-21T04:58:23.370Z,83.79
2018-05-21T05:00:50.835Z,83.74
2018-05-21T05:03:18.321Z,83.84
2018-05-21T05:05:45.787Z,82.65
2018-05-21T05:08:13.273Z,81.37
2018-05-21T05:10:40.750Z,79.72
2018-05-21T05:13:08.251Z,77.70
2018-05-21T05:15:35.732Z,75.71
2018-05-21T05:18:03.262Z,73.77
2018-05-21T05:20:30.754Z,73.25
2018-05-21T05:22:58.218Z,73.22
2018-05-21T05:25:25.716Z,73.80
2018-05-21T05:27:53.206Z,75.10
2018-05-21T05:30:20.711Z,76.34
2018-05-21T05:32:48.182Z,76.13
2018-05-21T05:35:15.674Z,76.97
2018-05-21T05:37:43.142Z,76.45
2018-05-21T05:40:10.636Z,76.18
2018-05-21T05:42:38.118Z,75.51
2018-05-21T05:45:05.601Z,74.25
2018-05-21T05:47:33.070Z,71.87
2018-05-21T05:50:00.559Z,70.82
2018-05-21T05:52:28.026Z,69.98
2018-05-21T05:54:55.518Z,69.15
2018-05-21T05:57:23.013Z,67.71
2018-05-21T05:59:50.511Z,66.34
2018-05-21T06:02:17.975Z,64.22
2018-05-21T06:04:45.462Z,61.48
2018-05-21T06:07:12.922Z,60.55
2018-05-21T06:09:40.414Z,60.43
2018-05-21T06:12:07.890Z,60.42
2018-05-21T06:14:36.165Z,61.01
2018-05-21T06:17:03.673Z,61.11
2018-05-21T06:19:31.161Z,62.26
2018-05-21T06:21:58.671Z,63.83
2018-05-21T06:24:26.167Z,61.38
2018-05-21T06:26:53.635Z,61.00
2018-05-21T06:29:27.828Z,59.24
2018-05-21T06:31:55.294Z,60.39
2018-05-21T06:34:22.832Z,57.43
2018-05-21T06:36:50.266Z,58.21
2018-05-21T06:39:17.765Z,57.54
2018-05-21T06:41:45.254Z,56.41
2018-05-21T06:44:12.765Z,56.85
2018-05-21T06:46:40.230Z,56.94
2018-05-21T06:49:07.702Z,57.96
2018-05-21T06:51:35.190Z,57.66
2018-05-21T06:54:02.654Z,57.08
2018-05-21T06:56:30.146Z,57.57
2018-05-21T06:58:57.630Z,55.28
2018-05-21T07:01:25.212Z,56.45
2018-05-21T07:03:52.680Z,58.01
2018-05-21T07:06:21.125Z,56.85
2018-05-21T07:08:48.599Z,57.76
2018-05-21T07:11:16.090Z,57.14
2018-05-21T07:13:43.573Z,57.88
2018-05-21T07:16:11.082Z,56.56
2018-05-21T07:18:38.786Z,56.70
2018-05-21T07:21:10.458Z,56.35
2018-05-21T07:23:37.921Z,56.40
2018-05-21T07:26:05.412Z,55.59
2018-05-21T07:28:32.878Z,56.43
2018-05-21T07:31:00.372Z,56.86
2018-05-21T07:33:28.625Z,55.54
2018-05-21T07:35:56.113Z,55.45
2018-05-21T07:38:23.676Z,55.41
2018-05-21T07:40:51.262Z,55.78
2018-05-21T07:43:18.784Z,55.67
2018-05-21T07:45:46.276Z,55.33
2018-05-21T07:48:13.757Z,52.97
2018-05-21T07:50:41.255Z,55.70
2018-05-21T07:53:08.730Z,54.07
2018-05-21T07:55:37.186Z,55.38
2018-05-21T07:58:04.758Z,54.55
2018-05-21T08:00:32.335Z,52.83
2018-05-21T08:02:59.831Z,53.87
2018-05-21T08:05:27.362Z,52.65
2018-05-21T08:07:54.838Z,51.56
2018-05-21T08:10:22.412Z,53.64
2018-05-21T08:12:49.817Z,52.67
2018-05-21T08:15:17.313Z,51.02
2018-05-21T08:17:44.782Z,52.06
2018-05-21T08:20:12.802Z,50.02
2018-05-21T08:22:40.378Z,50.59
2018-05-21T08:25:07.910Z,49.99
2018-05-21T08:27:35.482Z,51.51
2018-05-21T08:30:02.957Z,49.42
2018-05-21T08:32:30.439Z,50.61
2018-05-21T08:34:57.909Z,50.69
2018-05-21T08:37:25.414Z,50.40
2018-05-21T08:39:52.887Z,49.98
2018-05-21T08:42:20.363Z,49.74
2018-05-21T08:44:47.837Z,50.49
2018-05-21T08:47:15.328Z,47.99
2018-05-21T08:49:42.797Z,48.27
2018-05-21T08:52:10.278Z,50.20
2018-05-21T08:54:37.764Z,51.23
2018-05-21T08:57:05.290Z,50.09
2018-05-21T08:59:32.778Z,51.04
2018-05-21T09:02:00.283Z,50.16
2018-05-21T09:04:27.745Z,50.96
2018-05-21T09:06:55.238Z,51.69
2018-05-21T09:09:22.721Z,52.00
2018-05-21T09:11:50.207Z,52.15
2018-05-21T09:14:17.680Z,52.05
2018-05-21T09:16:45.161Z,50.51
2018-05-21T09:19:12.629Z,48.95
2018-05-21T09:21:40.121Z,49.26
2018-05-21T09:24:07.594Z,48.73
2018-05-21T09:26:35.088Z,49.51
2018-05-21T09:29:02.564Z,47.04
2018-05-21T09:31:30.051Z,49.08
2018-05-21T09:33:57.514Z,48.37
2018-05-21T09:36:25.015Z,48.00
2018-05-21T09:38:52.494Z,47.90
2018-05-21T09:41:19.965Z,50.83
2018-05-21T09:43:47.453Z,50.47
2018-05-21T09:46:14.921Z,48.54
2018-05-21T09:48:42.505Z,50.49
2018-05-21T09:51:09.905Z,48.68
2018-05-21T09:53:37.393Z,48.60
2018-05-21T09:56:04.867Z,48.85
2018-05-21T09:58:32.417Z,50.32
2018-05-21T10:00:59.893Z,50.05
2018-05-21T10:03:37.381Z,50.41
2018-05-21T10:06:04.868Z,51.04
2018-05-21T10:08:32.369Z,52.26
2018-05-21T10:10:59.837Z,50.77
2018-05-21T10:13:27.338Z,49.55
2018-05-21T10:15:54.809Z,49.04
2018-05-21T10:18:22.334Z,47.76
2018-05-21T10:20:49.802Z,49.64
2018-05-21T10:23:17.299Z,48.93
2018-05-21T10:25:44.766Z,49.54
2018-05-21T10:28:12.272Z,48.05
2018-05-21T10:30:39.888Z,49.90
2018-05-21T10:33:08.214Z,47.51
2018-05-21T10:35:36.149Z,50.40
2018-05-21T10:38:03.746Z,47.24
2018-05-21T10:40:31.234Z,46.98
2018-05-21T10:42:58.766Z,44.44
2018-05-21T10:45:26.378Z,45.08
2018-05-21T10:47:53.890Z,45.84
2018-05-21T10:50:21.414Z,43.77
2018-05-21T10:52:48.917Z,45.91
2018-05-21T10:55:16.397Z,43.87
2018-05-21T10:57:44.004Z,46.06
2018-05-21T11:00:11.495Z,43.71
2018-05-21T11:02:39.022Z,44.54
2018-05-21T11:05:06.495Z,42.86
2018-05-21T11:07:33.977Z,44.94
2018-05-21T11:10:01.450Z,43.90
2018-05-21T11:12:28.914Z,42.95
2018-05-21T11:14:56.399Z,41.92
2018-05-21T11:17:23.854Z,43.14
2018-05-21T11:19:51.339Z,42.50
2018-05-21T11:22:18.800Z,43.90
2018-05-21T11:24:46.298Z,43.66
2018-05-21T11:27:13.776Z,43.78
2018-05-21T11:29:41.269Z,41.88
2018-05-21T11:32:08.729Z,40.48
2018-05-21T11:34:36.218Z,42.65
2018-05-21T11:37:03.698Z,43.86
2018-05-21T11:39:31.206Z,43.90
2018-05-21T11:41:58.686Z,42.32
2018-05-21T11:44:26.163Z,41.92
2018-05-21T11:46:53.626Z,42.90
2018-05-21T11:49:21.113Z,43.27
2018-05-21T11:51:48.819Z,41.25
2018-05-21T11:54:16.343Z,41.51
2018-05-21T11:56:43.802Z,43.47
2018-05-21T11:59:11.282Z,42.29
2018-05-21T12:01:38.746Z,40.59
2018-05-21T12:04:06.250Z,39.35
2018-05-21T12:06:33.704Z,40.74
2018-05-21T12:09:01.205Z,41.39
2018-05-21T12:11:28.673Z,41.63
2018-05-21T12:13:56.158Z,39.21
2018-05-21T12:16:23.621Z,38.87
2018-05-21T12:18:51.108Z,37.75
2018-05-21T12:21:18.562Z,38.29
2018-05-21T12:23:46.046Z,38.85
2018-05-21T12:26:14.031Z,38.74
2018-05-21T12:28:41.504Z,38.17
2018-05-21T12:31:08.986Z,39.14
2018-05-21T12:33:36.463Z,38.50
2018-05-21T12:36:04.000Z,36.11
2018-05-21T12:38:31.486Z,35.49
2018-05-21T12:40:58.962Z,35.90
2018-05-21T12:43:26.426Z,35.58
2018-05-21T12:45:53.919Z,34.30
2018-05-21T12:48:21.387Z,34.99
2018-05-21T12:50:48.878Z,35.02
2018-05-21T12:53:16.350Z,36.02
2018-05-21T12:55:43.859Z,35.31
2018-05-21T12:58:11.335Z,33.85
2018-05-21T13:00:38.814Z,32.87
2018-05-21T13:03:06.290Z,34.27
2018-05-21T13:05:34.218Z,34.39
2018-05-21T13:08:01.742Z,31.81
2018-05-21T13:10:29.310Z,29.62
2018-05-21T13:12:56.950Z,29.74
2018-05-21T13:15:24.559Z,27.64
2018-05-21T13:17:52.019Z,27.03
2018-05-21T13:20:19.571Z,26.74
2018-05-21T13:22:47.058Z,25.93
2018-05-21T13:25:14.562Z,26.89
2018-05-21T13:27:42.046Z,26.64
2018-05-21T13:30:09.523Z,27.73
2018-05-21T13:32:36.999Z,28.44
2018-05-21T13:35:04.460Z,29.34
2018-05-21T13:37:32.490Z,29.90
2018-05-21T13:40:00.851Z,31.81
2018-05-21T13:42:28.374Z,28.88
2018-05-21T13:44:55.906Z,27.06
2018-05-21T13:47:23.474Z,25.53
2018-05-21T13:49:50.970Z,26.12
2018-05-21T13:52:18.593Z,25.79
2018-05-21T13:54:46.062Z,27.11
2018-05-21T13:57:13.615Z,27.77
2018-05-21T13:59:41.144Z,29.03
2018-05-21T14:02:08.697Z,27.12
2018-05-21T14:04:36.327Z,27.15
2018-05-21T14:07:03.794Z,27.27
2018-05-21T14:09:31.361Z,26.74
2018-05-21T14:11:58.986Z,24.15
2018-05-21T14:14:26.554Z,23.30
2018-05-21T14:16:54.122Z,24.89
2018-05-21T14:19:21.659Z,29.49
2018-05-21T14:21:49.230Z,32.08
2018-05-21T14:24:16.791Z,31.97
2018-05-21T14:26:44.362Z,30.03
2018-05-21T14:29:11.889Z,30.67
2018-05-21T14:31:39.438Z,29.86
2018-05-21T14:34:06.970Z,28.40
2018-05-21T14:36:34.519Z,25.09
2018-05-21T14:39:02.044Z,26.32
2018-05-21T14:41:29.596Z,27.52
2018-05-21T14:43:57.142Z,27.34
2018-05-21T14:46:24.701Z,28.59
2018-05-21T14:48:52.220Z,31.87
2018-05-21T14:51:19.696Z,27.98
2018-05-21T14:53:47.242Z,27.20
2018-05-21T14:56:14.823Z,25.68
2018-05-21T14:58:42.366Z,27.83
2018-05-21T15:01:09.887Z,28.74
2018-05-21T15:03:37.408Z,30.73
2018-05-21T15:06:04.961Z,28.54
2018-05-21T15:08:32.490Z,27.10
2018-05-21T15:11:00.010Z,24.55
2018-05-21T15:13:27.534Z,26.56
2018-05-21T15:15:55.159Z,26.92
2018-05-21T15:18:22.686Z,27.55
2018-05-21T15:20:50.180Z,27.69
2018-05-21T15:23:17.689Z,24.62
2018-05-21T15:25:45.189Z,22.31
2018-05-21T15:28:12.693Z,25.14
2018-05-21T15:30:40.150Z,23.49
2018-05-21T15:33:07.906Z,21.36
2018-05-21T15:35:35.381Z,22.31
2018-05-21T15:38:02.879Z,25.20
2018-05-21T15:40:30.388Z,24.34
2018-05-21T15:42:57.884Z,24.46
2018-05-21T15:45:25.377Z,25.06
2018-05-21T15:47:52.890Z,25.31
2018-05-21T15:50:20.375Z,23.81
2018-05-21T15:52:47.880Z,24.87
2018-05-21T15:55:15.347Z,23.38
2018-05-21T15:57:42.963Z,23.45
2018-05-21T16:00:10.450Z,21.88
2018-05-21T16:02:37.965Z,23.89
2018-05-21T16:05:05.465Z,22.83
2018-05-21T16:07:32.995Z,22.46
2018-05-21T16:10:00.470Z,21.56
2018-05-21T16:12:27.929Z,22.08
2018-05-21T16:14:55.426Z,20.52
2018-05-21T16:17:22.889Z,22.92
2018-05-21T16:19:50.374Z,25.65
2018-05-21T16:22:17.848Z,29.98
2018-05-21T16:24:45.331Z,31.28
2018-05-21T16:27:12.811Z,32.27
2018-05-21T16:29:40.574Z,33.11
2018-05-21T16:32:08.049Z,34.07
2018-05-21T16:34:35.557Z,34.11
2018-05-21T16:37:03.047Z,33.53
2018-05-21T16:39:30.542Z,32.86
2018-05-21T16:41:58.007Z,32.04
2018-05-21T16:44:25.489Z,31.99
2018-05-21T16:46:52.957Z,27.82
2018-05-21T16:49:20.685Z,25.82
2018-05-21T16:51:48.162Z,25.08
2018-05-21T16:54:15.652Z,23.28
2018-05-21T16:56:43.120Z,23.95
2018-05-21T16:59:10.645Z,25.41
2018-05-21T17:01:38.106Z,27.51
2018-05-21T17:04:05.583Z,29.64
2018-05-21T17:06:33.733Z,32.89
2018-05-21T17:09:01.898Z,34.55
2018-05-21T17:11:30.206Z,32.39
2018-05-21T17:13:57.710Z,29.64
2018-05-21T17:16:25.210Z,28.87
2018-05-21T17:18:52.702Z,31.84
2018-05-21T17:21:20.169Z,33.84
2018-05-21T17:23:47.660Z,34.26
2018-05-21T17:26:15.115Z,35.71
2018-05-21T17:28:42.614Z,37.90
2018-05-21T17:31:10.088Z,38.69
2018-05-21T17:33:37.581Z,39.89
2018-05-21T17:36:05.138Z,40.96
2018-05-21T17:38:32.657Z,42.13
2018-05-21T17:41:00.138Z,42.41
2018-05-21T17:43:27.602Z,43.09
2018-05-21T17:45:55.078Z,43.78
2018-05-21T17:48:22.549Z,43.82
2018-05-21T17:50:50.030Z,44.14
2018-05-21T17:53:17.497Z,45.91
2018-05-21T17:55:44.975Z,46.56
2018-05-21T17:58:12.438Z,48.29
2018-05-21T18:00:39.926Z,48.51
2018-05-21T18:03:07.418Z,48.29
2018-05-21T18:05:34.897Z,49.14
2018-05-21T18:08:02.362Z,48.27
2018-05-21T18:10:29.842Z,47.71
2018-05-21T18:12:57.357Z,47.92
2018-05-21T18:15:24.934Z,49.10
2018-05-21T18:17:52.438Z,48.85
2018-05-21T18:20:19.956Z,49.05
2018-05-21T18:22:48.341Z,49.99
2018-05-21T18:25:15.903Z,50.35
2018-05-21T18:27:43.397Z,50.93
2018-05-21T18:30:11.043Z,51.95
2018-05-21T18:32:38.512Z,53.00
2018-05-21T18:35:06.015Z,54.79
2018-05-21T18:37:33.482Z,54.71
2018-05-21T18:40:00.995Z,55.58
2018-05-21T18:42:28.555Z,55.86
2018-05-21T18:44:55.963Z,56.05
2018-05-21T18:47:23.434Z,56.43
2018-05-21T18:49:50.934Z,56.85
2018-05-21T18:52:18.401Z,57.59
2018-05-21T18:54:46.135Z,58.63
2018-05-21T18:57:13.643Z,57.86
2018-05-21T18:59:41.175Z,58.56
2018-05-21T19:02:08.658Z,60.41
2018-05-21T19:04:36.124Z,59.94
2018-05-21T19:07:03.610Z,60.12
2018-05-21T19:09:31.067Z,59.97
2018-05-21T19:11:58.558Z,61.06
2018-05-21T19:14:26.023Z,60.87
2018-05-21T19:16:53.513Z,60.34
2018-05-21T19:19:21.002Z,60.88
2018-05-21T19:21:48.493Z,61.21
2018-05-21T19:24:16.007Z,62.05
2018-05-21T19:26:43.506Z,61.08
2018-05-21T19:29:10.959Z,60.38
2018-05-21T19:31:38.433Z,59.69
2018-05-21T19:34:05.898Z,59.83
2018-05-21T19:36:33.383Z,59.54
2018-05-21T19:39:00.849Z,60.23
2018-05-21T19:41:28.344Z,60.61
2018-05-21T19:43:55.817Z,61.41
2018-05-21T19:46:23.308Z,61.79
2018-05-21T19:48:50.790Z,62.09
2018-05-21T19:51:18.283Z,62.41
2018-05-21T19:53:45.746Z,62.27
2018-05-21T19:56:13.237Z,61.96
2018-05-21T19:58:40.718Z,62.46
2018-05-21T20:01:08.197Z,62.33
2018-05-21T20:03:35.667Z,62.58
2018-05-21T20:06:03.150Z,62.71
2018-05-21T20:08:30.624Z,63.01
2018-05-21T20:10:58.107Z,63.22
2018-05-21T20:13:25.574Z,63.85
2018-05-21T20:15:53.091Z,64.42
2018-05-21T20:18:32.346Z,64.49
2018-05-21T20:20:59.841Z,65.35
2018-05-21T20:23:27.302Z,65.19
2018-05-21T20:25:55.011Z,66.19
2018-05-21T20:28:22.499Z,66.62
2018-05-21T20:30:49.975Z,66.65
2018-05-21T20:33:17.453Z,67.07
2018-05-21T20:35:44.922Z,66.40
2018-05-21T20:38:12.404Z,66.91
2018-05-21T20:40:39.881Z,67.14
2018-05-21T20:43:07.374Z,67.70
2018-05-21T20:45:34.834Z,66.96
2018-05-21T20:48:02.328Z,68.43
2018-05-21T20:50:29.790Z,68.54
2018-05-21T20:52:57.353Z,68.39
2018-05-21T20:55:26.359Z,68.36
2018-05-21T20:57:53.866Z,68.56
2018-05-21T21:00:21.321Z,69.44
2018-05-21T21:02:48.832Z,70.46
2018-05-21T21:05:16.289Z,72.23
2018-05-21T21:07:43.753Z,68.30
2018-05-21T21:10:11.250Z,69.48
2018-05-21T21:12:38.714Z,67.36
2018-05-21T21:15:06.210Z,65.48
2018-05-21T21:17:33.674Z,67.67
2018-05-21T21:20:01.175Z,67.17
2018-05-21T21:22:28.674Z,68.11
2018-05-21T21:24:56.156Z,69.29
2018-05-21T21:27:23.619Z,69.92
2018-05-21T21:29:51.101Z,69.30
2018-05-21T21:32:18.577Z,69.11
2018-05-21T21:34:46.095Z,69.75
2018-05-21T21:37:13.556Z,69.28
2018-05-21T21:39:41.050Z,69.62
2018-05-21T21:42:08.510Z,69.75
2018-05-21T21:44:36.041Z,70.33
2018-05-21T21:47:03.519Z,70.76
2018-05-21T21:49:31.008Z,68.74
2018-05-21T21:51:58.476Z,69.31
2018-05-21T21:54:25.969Z,72.23
2018-05-21T21:56:53.436Z,74.35
2018-05-21T21:59:20.923Z,74.53
2018-05-21T22:01:48.422Z,74.38
2018-05-21T22:04:15.874Z,74.51
2018-05-21T22:06:43.363Z,75.34
2018-05-21T22:09:10.839Z,74.33
2018-05-21T22:11:38.314Z,75.10
2018-05-21T22:14:05.779Z,75.98
2018-05-21T22:16:33.267Z,75.00
2018-05-21T22:19:00.759Z,76.55
2018-05-21T22:21:28.247Z,78.46
2018-05-21T22:23:55.717Z,85.10
2018-05-21T22:26:23.205Z,84.95
2018-05-21T22:28:50.677Z,84.70
2018-05-21T22:31:18.180Z,83.89
2018-05-21T22:33:45.649Z,82.13
2018-05-21T22:36:13.154Z,85.05
2018-05-21T22:38:40.637Z,82.91
2018-05-21T22:41:08.114Z,82.75
2018-05-21T22:43:35.602Z,83.02
2018-05-21T22:46:03.071Z,85.39
2018-05-21T22:48:30.558Z,85.28
2018-05-21T22:50:58.030Z,83.92
2018-05-21T22:53:25.530Z,84.06
2018-05-21T22:55:53.001Z,85.47
2018-05-21T22:58:20.504Z,85.02
2018-05-21T23:00:47.986Z,84.62
2018-05-21T23:03:15.474Z,84.93
2018-05-21T23:05:42.949Z,84.71
2018-05-21T23:08:10.452Z,85.77
2018-05-21T23:10:37.925Z,85.39
2018-05-21T23:13:05.416Z,85.05
2018-05-21T23:15:32.889Z,85.32
2018-05-21T23:18:07.814Z,86.52
2018-05-21T23:20:35.282Z,87.50
2018-05-21T23:23:02.761Z,84.75
2018-05-21T23:25:30.252Z,86.01
2018-05-21T23:27:57.722Z,85.72
2018-05-21T23:30:25.210Z,85.92
2018-05-21T23:32:52.730Z,86.16
2018-05-21T23:35:20.229Z,88.30
2018-05-21T23:37:47.702Z,88.42
2018-05-21T23:40:15.192Z,89.02
2018-05-21T23:42:42.663Z,88.93
2018-05-21T23:45:10.202Z,88.72
2018-05-21T23:47:37.683Z,88.68
2018-05-21T23:50:05.183Z,89.05
2018-05-21T23:52:32.645Z,87.99
2018-05-21T23:55:00.142Z,87.87
2018-05-21T23:57:27.619Z,87.24
2018-05-21T23:59:55.086Z,86.55
